Time;durP1;ratioP1;P1;durP2;ratioP2;P2;SDS_P1;SDS_P2;PMS_P1;PMS_P2;Temp;Humidity;BMP_temperature;BMP_pressure;BME280_temperature;BME280_humidity;BME280_pressure;Samples;Min_cycle;Max_cycle;Signal;HPM_P1;HPM_P2
2021/10/10 00:01:59;;;;;;;92.20;40.72;;;;;;;;;;5058175;28;20413;-64
2021/10/10 00:04:25;;;;;;;86.68;40.40;;;;;;;;;;5046349;28;20084;-64
2021/10/10 00:06:52;;;;;;;70.88;34.58;;;;;;;;;;5054755;28;20056;-64
2021/10/10 00:09:18;;;;;;;65.50;30.92;;;;;;;;;;5041584;28;20068;-64
2021/10/10 00:11:44;;;;;;;57.15;29.17;;;;;;;;;;5064792;28;20063;-64
2021/10/10 00:14:11;;;;;;;59.80;29.48;;;;;;;;;;5053168;28;20136;-64
2021/10/10 00:16:37;;;;;;;54.42;27.02;;;;;;;;;;5062800;28;20044;-64
2021/10/10 00:19:03;;;;;;;49.75;26.25;;;;;;;;;;5072579;28;20083;-64
2021/10/10 00:21:30;;;;;;;50.03;25.10;;;;;;;;;;5051974;28;20060;-64
2021/10/10 00:23:56;;;;;;;45.35;23.95;;;;;;;;;;5045932;28;20048;-64
2021/10/10 00:26:22;;;;;;;54.75;25.25;;;;;;;;;;5054673;28;20368;-64
2021/10/10 00:28:48;;;;;;;50.63;25.52;;;;;;;;;;5052235;28;20076;-64
2021/10/10 00:31:15;;;;;;;52.35;25.67;;;;;;;;;;5055590;28;20059;-64
2021/10/10 00:33:41;;;;;;;48.20;24.27;;;;;;;;;;5042290;28;20519;-64
2021/10/10 00:36:08;;;;;;;44.85;23.98;;;;;;;;;;5058223;28;20052;-64
2021/10/10 00:38:34;;;;;;;46.53;23.38;;;;;;;;;;5045199;28;20641;-64
2021/10/10 00:41:00;;;;;;;47.28;23.30;;;;;;;;;;5061633;28;20044;-64
2021/10/10 00:43:27;;;;;;;46.95;24.65;;;;;;;;;;5057624;28;20048;-64
2021/10/10 00:45:53;;;;;;;51.53;23.83;;;;;;;;;;5055130;28;20049;-64
2021/10/10 00:48:20;;;;;;;47.92;24.15;;;;;;;;;;5047717;28;20053;-64
2021/10/10 00:50:46;;;;;;;48.80;24.15;;;;;;;;;;5049235;28;20239;-64
2021/10/10 00:53:15;;;;;;;43.53;24.52;;;;;;;;;;5052766;28;20060;-63
2021/10/10 00:55:42;;;;;;;47.20;24.17;;;;;;;;;;5052542;28;20045;-64
2021/10/10 00:58:09;;;;;;;47.42;24.15;;;;;;;;;;5050967;28;20051;-64
2021/10/10 01:00:37;;;;;;;54.08;24.88;;;;;;;;;;5059292;28;20044;-64
2021/10/10 01:03:05;;;;;;;47.03;24.17;;;;;;;;;;5030258;28;20063;-64
2021/10/10 01:05:33;;;;;;;;;;;;;;;;;;5052608;28;20056;-64
2021/10/10 01:07:59;;;;;;;60.72;29.25;;;;;;;;;;5046227;28;19931;-64
2021/10/10 01:10:25;;;;;;;97.80;43.75;;;;;;;;;;5066062;28;20485;-64
2021/10/10 01:12:52;;;;;;;91.50;40.05;;;;;;;;;;5057539;28;20059;-64
2021/10/10 01:15:18;;;;;;;74.93;37.85;;;;;;;;;;5062239;28;20412;-64
2021/10/10 01:17:48;;;;;;;63.47;32.53;;;;;;;;;;5060499;28;20063;-64
2021/10/10 01:20:15;;;;;;;59.58;30.67;;;;;;;;;;5050327;28;20044;-64
2021/10/10 01:22:41;;;;;;;64.93;29.65;;;;;;;;;;5083924;28;20067;-64
2021/10/10 01:25:08;;;;;;;52.28;27.63;;;;;;;;;;5057495;28;20053;-64
2021/10/10 01:27:34;;;;;;;51.38;26.38;;;;;;;;;;5060763;28;20052;-64
2021/10/10 01:30:01;;;;;;;51.30;25.38;;;;;;;;;;5058126;28;20672;-63
2021/10/10 01:32:27;;;;;;;50.72;25.65;;;;;;;;;;5056934;28;20397;-64
2021/10/10 01:34:53;;;;;;;48.00;24.90;;;;;;;;;;5058796;28;20056;-64
2021/10/10 01:37:20;;;;;;;46.45;24.23;;;;;;;;;;5049391;28;20052;-64
2021/10/10 01:39:46;;;;;;;47.05;25.13;;;;;;;;;;5062925;28;20041;-64
2021/10/10 01:42:12;;;;;;;49.03;24.25;;;;;;;;;;5057819;28;20810;-64
2021/10/10 01:44:39;;;;;;;48.92;23.98;;;;;;;;;;5056435;28;20052;-64
2021/10/10 01:47:05;;;;;;;44.80;22.23;;;;;;;;;;5059077;28;20040;-63
2021/10/10 01:49:31;;;;;;;41.10;22.95;;;;;;;;;;5054813;28;20056;-64
2021/10/10 01:51:57;;;;;;;47.85;24.15;;;;;;;;;;5050872;28;20490;-64
2021/10/10 01:54:24;;;;;;;41.45;23.50;;;;;;;;;;5055428;28;20052;-64
2021/10/10 01:56:50;;;;;;;39.50;21.85;;;;;;;;;;5046816;28;20060;-64
2021/10/10 01:59:16;;;;;;;43.25;22.98;;;;;;;;;;5053578;28;20058;-64
2021/10/10 02:01:43;;;;;;;40.10;20.98;;;;;;;;;;5052460;28;20044;-64
2021/10/10 02:04:09;;;;;;;46.55;23.40;;;;;;;;;;5061826;28;20052;-64
2021/10/10 02:06:36;;;;;;;38.53;21.83;;;;;;;;;;5053307;28;20136;-64
2021/10/10 02:09:02;;;;;;;43.05;22.45;;;;;;;;;;5060286;28;20048;-64
2021/10/10 02:11:28;;;;;;;46.38;22.42;;;;;;;;;;5040586;28;20437;-64
2021/10/10 02:13:54;;;;;;;39.78;21.90;;;;;;;;;;5055616;28;20044;-64
2021/10/10 02:16:21;;;;;;;39.42;21.48;;;;;;;;;;5042235;28;20592;-64
2021/10/10 02:18:47;;;;;;;38.28;21.10;;;;;;;;;;5056135;28;20466;-64
2021/10/10 02:21:14;;;;;;;38.03;20.90;;;;;;;;;;5046426;28;20059;-64
2021/10/10 02:23:40;;;;;;;47.63;22.20;;;;;;;;;;5057290;28;20497;-64
2021/10/10 02:26:06;;;;;;;47.58;23.65;;;;;;;;;;5041378;28;20049;-64
2021/10/10 02:28:32;;;;;;;43.00;22.52;;;;;;;;;;5053260;28;20065;-66
2021/10/10 02:30:59;;;;;;;46.53;22.45;;;;;;;;;;5060305;28;20049;-64
2021/10/10 02:33:25;;;;;;;42.60;22.52;;;;;;;;;;5061783;28;20072;-64
2021/10/10 02:35:51;;;;;;;41.30;22.27;;;;;;;;;;5046734;28;20048;-64
2021/10/10 02:38:18;;;;;;;44.45;22.15;;;;;;;;;;5061387;28;20048;-64
2021/10/10 02:40:44;;;;;;;47.38;23.20;;;;;;;;;;5037945;28;20079;-64
2021/10/10 02:43:10;;;;;;;39.55;22.63;;;;;;;;;;5054024;28;20044;-64
2021/10/10 02:45:37;;;;;;;39.65;21.33;;;;;;;;;;5043290;28;20053;-64
2021/10/10 02:48:04;;;;;;;38.17;22.60;;;;;;;;;;5060599;28;20064;-64
2021/10/10 02:50:30;;;;;;;43.38;21.95;;;;;;;;;;5053561;28;20048;-64
2021/10/10 02:52:57;;;;;;;40.30;20.88;;;;;;;;;;5054691;28;20053;-64
2021/10/10 02:55:23;;;;;;;42.30;21.80;;;;;;;;;;5044769;28;20457;-64
2021/10/10 02:57:49;;;;;;;37.78;20.65;;;;;;;;;;5049945;28;20056;-64
2021/10/10 03:00:16;;;;;;;40.17;21.33;;;;;;;;;;5056107;28;20049;-64
2021/10/10 03:02:42;;;;;;;39.58;21.55;;;;;;;;;;5047160;28;20049;-64
2021/10/10 03:05:08;;;;;;;42.40;22.13;;;;;;;;;;5048670;28;20512;-64
2021/10/10 03:07:35;;;;;;;47.60;22.70;;;;;;;;;;5053488;28;20474;-64
2021/10/10 03:10:01;;;;;;;55.35;23.95;;;;;;;;;;5042616;28;20938;-64
2021/10/10 03:12:28;;;;;;;50.00;24.13;;;;;;;;;;5053233;28;20048;-64
2021/10/10 03:14:54;;;;;;;42.95;21.95;;;;;;;;;;5044342;28;20076;-64
2021/10/10 03:17:21;;;;;;;41.88;22.80;;;;;;;;;;5051717;28;20434;-64
2021/10/10 03:19:47;;;;;;;37.53;22.48;;;;;;;;;;5054636;28;20434;-64
2021/10/10 03:22:13;;;;;;;41.63;21.52;;;;;;;;;;5053748;28;20047;-64
2021/10/10 03:24:40;;;;;;;50.08;22.23;;;;;;;;;;5046178;28;20045;-64
2021/10/10 03:27:06;;;;;;;78.32;22.13;;;;;;;;;;5050439;28;20408;-64
2021/10/10 03:29:32;;;;;;;38.83;21.50;;;;;;;;;;5055530;28;20057;-64
2021/10/10 03:31:59;;;;;;;37.15;20.95;;;;;;;;;;5046385;28;20465;-64
2021/10/10 03:34:25;;;;;;;41.72;21.17;;;;;;;;;;5059213;28;20080;-64
2021/10/10 03:36:51;;;;;;;40.00;22.35;;;;;;;;;;5050892;28;20166;-64
2021/10/10 03:39:18;;;;;;;37.42;21.17;;;;;;;;;;5044022;28;20493;-64
2021/10/10 03:41:44;;;;;;;53.13;22.90;;;;;;;;;;5057892;28;20100;-63
2021/10/10 03:44:11;;;;;;;53.28;22.80;;;;;;;;;;5048303;28;20048;-64
2021/10/10 03:46:37;;;;;;;36.90;21.48;;;;;;;;;;5052645;28;20102;-64
2021/10/10 03:49:03;;;;;;;35.58;20.77;;;;;;;;;;5051884;28;20069;-64
2021/10/10 03:51:30;;;;;;;42.75;22.17;;;;;;;;;;5041692;28;20509;-64
2021/10/10 03:56:49;;;;;;;37.88;21.73;;;;;;;;;;5037587;28;20424;-64
2021/10/10 03:59:16;;;;;;;42.33;22.80;;;;;;;;;;5057321;28;20420;-64
2021/10/10 04:01:42;;;;;;;38.25;22.13;;;;;;;;;;5049078;28;20068;-64
2021/10/10 04:04:09;;;;;;;42.63;21.90;;;;;;;;;;5044493;28;20119;-64
2021/10/10 04:06:35;;;;;;;41.08;22.45;;;;;;;;;;5042800;28;20607;-64
2021/10/10 04:09:01;;;;;;;39.03;21.48;;;;;;;;;;5052176;28;20060;-64
2021/10/10 04:11:28;;;;;;;36.92;19.92;;;;;;;;;;5063178;28;20061;-64
2021/10/10 04:13:54;;;;;;;49.05;23.40;;;;;;;;;;5031167;28;20049;-64
2021/10/10 04:16:20;;;;;;;51.53;24.08;;;;;;;;;;5058342;28;20072;-64
2021/10/10 04:18:47;;;;;;;53.40;24.48;;;;;;;;;;5038421;28;20056;-64
2021/10/10 04:21:13;;;;;;;53.47;24.85;;;;;;;;;;5050081;28;20523;-64
2021/10/10 04:23:39;;;;;;;70.75;23.85;;;;;;;;;;5052605;28;20442;-64
2021/10/10 04:26:06;;;;;;;48.85;23.45;;;;;;;;;;5054357;28;20443;-64
2021/10/10 04:28:32;;;;;;;47.53;23.80;;;;;;;;;;5055953;28;20053;-64
2021/10/10 04:30:58;;;;;;;51.40;23.58;;;;;;;;;;5048792;28;20051;-64
2021/10/10 04:33:25;;;;;;;59.33;24.98;;;;;;;;;;5057120;28;20053;-64
2021/10/10 04:35:51;;;;;;;72.35;23.17;;;;;;;;;;5055309;28;20838;-64
2021/10/10 04:38:17;;;;;;;59.25;23.80;;;;;;;;;;5062257;28;20049;-64
2021/10/10 04:40:44;;;;;;;112.15;25.42;;;;;;;;;;5062558;28;20500;-64
2021/10/10 04:43:10;;;;;;;161.00;25.33;;;;;;;;;;5061936;28;20079;-64
2021/10/10 04:45:36;;;;;;;125.80;24.80;;;;;;;;;;5059144;28;20048;-64
2021/10/10 04:48:03;;;;;;;167.27;26.38;;;;;;;;;;5053518;28;20049;-64
2021/10/10 04:50:29;;;;;;;106.60;25.42;;;;;;;;;;5057497;28;20044;-64
2021/10/10 04:52:56;;;;;;;151.25;25.08;;;;;;;;;;5058441;28;20045;-64
2021/10/10 04:55:22;;;;;;;61.30;22.95;;;;;;;;;;5063693;28;20048;-64
2021/10/10 04:57:51;;;;;;;123.22;24.75;;;;;;;;;;5055681;28;20084;-64
2021/10/10 05:00:18;;;;;;;65.00;22.88;;;;;;;;;;5041505;28;20396;-64
2021/10/10 05:02:44;;;;;;;70.97;23.25;;;;;;;;;;5055865;28;20124;-64
2021/10/10 05:05:11;;;;;;;83.20;24.08;;;;;;;;;;5042615;28;20049;-64
2021/10/10 05:07:37;;;;;;;53.80;22.58;;;;;;;;;;5056187;28;20048;-64
2021/10/10 05:10:04;;;;;;;58.58;23.70;;;;;;;;;;5050076;28;20083;-64
2021/10/10 05:12:30;;;;;;;116.93;24.77;;;;;;;;;;5040084;28;20053;-64
2021/10/10 05:14:56;;;;;;;101.50;24.17;;;;;;;;;;5048559;28;20127;-64
2021/10/10 05:17:23;;;;;;;63.97;24.30;;;;;;;;;;5054046;28;20052;-64
2021/10/10 05:19:49;;;;;;;146.77;25.20;;;;;;;;;;5048823;28;20060;-64
2021/10/10 05:22:15;;;;;;;68.60;22.77;;;;;;;;;;5034825;28;20053;-64
2021/10/10 05:24:42;;;;;;;78.05;23.95;;;;;;;;;;5045739;28;20044;-64
2021/10/10 05:27:08;;;;;;;95.65;24.38;;;;;;;;;;5044919;28;20049;-64
2021/10/10 05:29:37;;;;;;;73.18;22.35;;;;;;;;;;5044019;28;20045;-64
2021/10/10 05:32:04;;;;;;;41.58;20.65;;;;;;;;;;5057752;28;20049;-64
2021/10/10 05:34:31;;;;;;;37.53;21.38;;;;;;;;;;5048641;28;20046;-64
2021/10/10 05:36:58;;;;;;;44.83;21.10;;;;;;;;;;5056798;28;20044;-64
2021/10/10 05:39:24;;;;;;;37.50;21.83;;;;;;;;;;5047647;28;21143;-64
2021/10/10 05:41:50;;;;;;;77.85;22.17;;;;;;;;;;5051107;28;20056;-64
2021/10/10 05:44:17;;;;;;;36.83;19.92;;;;;;;;;;5043499;28;20045;-64
2021/10/10 05:46:43;;;;;;;57.58;19.83;;;;;;;;;;5041410;28;20508;-64
2021/10/10 05:49:10;;;;;;;29.42;19.88;;;;;;;;;;5046345;28;20366;-64
2021/10/10 05:51:36;;;;;;;34.08;18.90;;;;;;;;;;5054585;28;20059;-64
2021/10/10 05:54:04;;;;;;;36.88;18.52;;;;;;;;;;5057916;28;20060;-64
2021/10/10 05:56:32;;;;;;;32.97;19.67;;;;;;;;;;5043640;28;20052;-64
2021/10/10 05:59:04;;;;;;;53.95;20.17;;;;;;;;;;5059694;28;20312;-64
2021/10/10 06:01:37;;;;;;;47.05;20.17;;;;;;;;;;5048478;28;21005;-64
2021/10/10 06:04:04;;;;;;;52.70;20.85;;;;;;;;;;5072851;28;20553;-64
2021/10/10 06:06:31;;;;;;;55.88;20.02;;;;;;;;;;5057197;28;20044;-64
2021/10/10 06:08:57;;;;;;;50.58;19.85;;;;;;;;;;5031111;28;20036;-65
2021/10/10 06:11:24;;;;;;;90.10;20.65;;;;;;;;;;5052506;28;20048;-64
2021/10/10 06:13:50;;;;;;;54.00;21.85;;;;;;;;;;5034222;28;20374;-64
2021/10/10 06:16:16;;;;;;;57.92;20.73;;;;;;;;;;5059198;28;20055;-64
2021/10/10 06:18:43;;;;;;;39.38;18.25;;;;;;;;;;5042089;28;20055;-64
2021/10/10 06:21:09;;;;;;;50.13;20.90;;;;;;;;;;5052007;28;20055;-64
2021/10/10 06:23:36;;;;;;;35.17;20.58;;;;;;;;;;5037704;28;20049;-63
2021/10/10 06:26:02;;;;;;;59.97;21.10;;;;;;;;;;5046819;28;20050;-64
2021/10/10 06:28:28;;;;;;;69.88;20.60;;;;;;;;;;5057716;28;20048;-64
2021/10/10 06:30:54;;;;;;;94.95;20.50;;;;;;;;;;5047233;28;20482;-64
2021/10/10 06:33:21;;;;;;;63.63;20.52;;;;;;;;;;5050677;28;20045;-64
2021/10/10 06:35:47;;;;;;;34.28;19.73;;;;;;;;;;5052912;28;20075;-64
2021/10/10 06:38:13;;;;;;;66.47;19.42;;;;;;;;;;5037864;28;20052;-64
2021/10/10 06:40:40;;;;;;;51.35;19.83;;;;;;;;;;5053657;28;20076;-63
2021/10/10 06:43:06;;;;;;;26.92;18.65;;;;;;;;;;5041964;28;20912;-64
2021/10/10 06:45:32;;;;;;;46.65;19.42;;;;;;;;;;5056837;28;20106;-64
2021/10/10 06:47:59;;;;;;;64.63;20.85;;;;;;;;;;5039256;28;20053;-64
2021/10/10 06:50:25;;;;;;;40.97;20.58;;;;;;;;;;5049197;28;20075;-64
2021/10/10 06:52:52;;;;;;;45.78;19.80;;;;;;;;;;5040852;28;20450;-64
2021/10/10 06:55:18;;;;;;;48.50;20.20;;;;;;;;;;5042832;28;20049;-63
2021/10/10 06:57:44;;;;;;;48.63;19.83;;;;;;;;;;5042700;28;20052;-64
2021/10/10 07:00:11;;;;;;;57.65;19.92;;;;;;;;;;5046878;28;20050;-64
2021/10/10 07:02:41;;;;;;;31.67;19.40;;;;;;;;;;5053810;28;20434;-63
2021/10/10 07:05:09;;;;;;;46.03;19.75;;;;;;;;;;5046767;28;20090;-63
2021/10/10 07:07:36;;;;;;;35.78;18.35;;;;;;;;;;5034507;28;20431;-63
2021/10/10 07:10:03;;;;;;;26.00;18.48;;;;;;;;;;5057974;28;20121;-63
2021/10/10 07:12:29;;;;;;;27.00;18.02;;;;;;;;;;5046676;28;20057;-63
2021/10/10 07:14:55;;;;;;;24.25;19.00;;;;;;;;;;5056220;28;20309;-63
2021/10/10 07:17:28;;;;;;;25.58;18.13;;;;;;;;;;5030204;28;20274;-63
2021/10/10 07:20:11;;;;;;;45.65;20.85;;;;;;;;;;5048060;28;20047;-63
2021/10/10 07:25:08;;;;;;;35.35;21.45;;;;;;;;;;5051485;28;20402;-63
2021/10/10 07:27:35;;;;;;;31.45;21.40;;;;;;;;;;5053592;28;20052;-63
2021/10/10 07:30:03;;;;;;;31.98;21.40;;;;;;;;;;5045795;28;20045;-63
2021/10/10 07:32:30;;;;;;;36.58;21.13;;;;;;;;;;5047652;28;20052;-63
2021/10/10 07:34:56;;;;;;;33.88;22.83;;;;;;;;;;5044067;28;20063;-63
2021/10/10 07:37:23;;;;;;;34.05;22.30;;;;;;;;;;5055454;28;20466;-63
2021/10/10 07:39:49;;;;;;;36.30;22.73;;;;;;;;;;5055832;28;20045;-64
2021/10/10 07:42:16;;;;;;;37.50;23.85;;;;;;;;;;5036399;28;20329;-63
2021/10/10 07:44:47;;;;;;;34.75;23.98;;;;;;;;;;5053886;28;20044;-63
2021/10/10 07:49:49;;;;;;;38.00;23.65;;;;;;;;;;5059719;28;20044;-63
2021/10/10 07:52:16;;;;;;;38.28;25.83;;;;;;;;;;5034778;28;20065;-63
2021/10/10 07:54:43;;;;;;;35.25;24.85;;;;;;;;;;5058375;28;20044;-63
2021/10/10 07:57:10;;;;;;;38.55;26.15;;;;;;;;;;5047264;28;20048;-63
2021/10/10 07:59:36;;;;;;;34.28;24.65;;;;;;;;;;5047338;28;20056;-63
2021/10/10 08:02:03;;;;;;;35.40;24.77;;;;;;;;;;5040023;28;20053;-63
2021/10/10 08:04:29;;;;;;;40.92;24.90;;;;;;;;;;5053838;28;20048;-63
2021/10/10 08:06:56;;;;;;;40.90;25.45;;;;;;;;;;5045522;28;20671;-63
2021/10/10 08:09:23;;;;;;;46.47;28.23;;;;;;;;;;5047384;28;20678;-64
2021/10/10 08:11:49;;;;;;;39.85;27.90;;;;;;;;;;5055579;28;20058;-64
2021/10/10 08:14:16;;;;;;;42.67;27.65;;;;;;;;;;5055356;28;20048;-64
2021/10/10 08:16:43;;;;;;;41.47;26.52;;;;;;;;;;5039901;28;20360;-64
2021/10/10 08:19:09;;;;;;;39.67;27.35;;;;;;;;;;5058152;28;20045;-64
2021/10/10 08:21:35;;;;;;;40.42;28.20;;;;;;;;;;5058656;28;20048;-64
2021/10/10 08:24:03;;;;;;;41.03;28.13;;;;;;;;;;5061724;28;20051;-64
2021/10/10 08:26:30;;;;;;;42.13;27.20;;;;;;;;;;5045416;28;20485;-64
2021/10/10 08:29:00;;;;;;;43.60;28.77;;;;;;;;;;5045972;28;20071;-64
2021/10/10 08:31:26;;;;;;;42.03;27.92;;;;;;;;;;5054192;28;20060;-63
2021/10/10 08:33:53;;;;;;;41.58;27.05;;;;;;;;;;5049015;28;20195;-64
2021/10/10 08:36:39;;;;;;;46.78;27.77;;;;;;;;;;5063020;28;20049;-64
2021/10/10 08:39:05;;;;;;;47.80;29.00;;;;;;;;;;5055054;28;20416;-64
2021/10/10 08:41:34;;;;;;;44.38;29.65;;;;;;;;;;5045087;28;20060;-64
2021/10/10 08:44:04;;;;;;;44.75;30.00;;;;;;;;;;5046899;28;20044;-64
2021/10/10 08:46:33;;;;;;;50.83;32.35;;;;;;;;;;5048286;28;20049;-64
2021/10/10 08:49:04;;;;;;;50.97;32.38;;;;;;;;;;5060597;28;20044;-64
2021/10/10 08:51:35;;;;;;;51.83;31.23;;;;;;;;;;5048600;28;20063;-64
2021/10/10 08:54:01;;;;;;;56.60;33.28;;;;;;;;;;5057798;28;20127;-64
2021/10/10 08:56:28;;;;;;;56.47;34.92;;;;;;;;;;5038002;28;20053;-64
2021/10/10 08:59:00;;;;;;;60.58;35.10;;;;;;;;;;5055877;28;20043;-64
2021/10/10 09:01:29;;;;;;;60.33;33.90;;;;;;;;;;5043534;28;20655;-64
2021/10/10 09:03:56;;;;;;;53.28;33.58;;;;;;;;;;5038915;28;20044;-64
2021/10/10 09:06:23;;;;;;;56.22;34.55;;;;;;;;;;5053104;28;20473;-64
2021/10/10 09:08:51;;;;;;;59.65;35.22;;;;;;;;;;5045526;28;20048;-64
2021/10/10 09:11:18;;;;;;;;;;;;;;;;;;5046257;28;20668;-64
2021/10/10 09:13:44;;;;;;;58.67;34.10;;;;;;;;;;5049547;28;19924;-64
2021/10/10 09:16:11;;;;;;;60.28;35.25;;;;;;;;;;5050273;28;20053;-64
2021/10/10 09:18:39;;;;;;;56.80;33.28;;;;;;;;;;5047887;28;20595;-64
2021/10/10 09:21:13;;;;;;;59.83;33.17;;;;;;;;;;5027969;28;20130;-64
2021/10/10 09:23:39;;;;;;;55.92;33.90;;;;;;;;;;5050398;28;20050;-64
2021/10/10 09:26:06;;;;;;;62.08;34.88;;;;;;;;;;5040916;28;20049;-64
2021/10/10 09:28:33;;;;;;;56.58;32.22;;;;;;;;;;5053014;28;20060;-64
2021/10/10 09:31:01;;;;;;;57.78;35.63;;;;;;;;;;5050063;28;20052;-64
2021/10/10 09:33:36;;;;;;;60.78;36.67;;;;;;;;;;5052727;28;20060;-64
2021/10/10 09:36:05;;;;;;;48.72;26.92;;;;;;;;;;5055722;28;20271;-64
2021/10/10 09:38:40;;;;;;;59.13;34.53;;;;;;;;;;5052970;28;20754;-64
2021/10/10 09:41:10;;;;;;;57.47;34.08;;;;;;;;;;5050841;28;20055;-64
2021/10/10 09:43:55;;;;;;;57.03;34.28;;;;;;;;;;5051741;28;20063;-64
2021/10/10 09:46:22;;;;;;;54.95;32.85;;;;;;;;;;5061590;28;20052;-64
2021/10/10 09:48:49;;;;;;;44.20;27.40;;;;;;;;;;5054301;28;20056;-64
2021/10/10 09:51:33;;;;;;;58.03;34.17;;;;;;;;;;5043435;28;20640;-64
2021/10/10 09:54:03;;;;;;;58.20;33.53;;;;;;;;;;5051496;28;20159;-64
2021/10/10 09:56:29;;;;;;;59.10;34.20;;;;;;;;;;5032652;28;20045;-64
2021/10/10 09:58:56;;;;;;;59.53;34.20;;;;;;;;;;5061352;28;20716;-64
2021/10/10 10:01:23;;;;;;;58.25;34.45;;;;;;;;;;5036438;28;20052;-64
2021/10/10 10:03:53;;;;;;;55.67;32.87;;;;;;;;;;5054046;28;20122;-64
2021/10/10 10:06:19;;;;;;;58.47;34.60;;;;;;;;;;5027103;28;20278;-64
2021/10/10 10:08:46;;;;;;;57.88;34.17;;;;;;;;;;5060317;28;20045;-64
2021/10/10 10:11:12;;;;;;;54.67;32.60;;;;;;;;;;5043344;28;20051;-64
2021/10/10 10:13:39;;;;;;;58.15;33.80;;;;;;;;;;5060035;28;20044;-64
2021/10/10 10:16:06;;;;;;;54.50;32.13;;;;;;;;;;5046851;28;20051;-64
2021/10/10 10:18:34;;;;;;;52.97;32.03;;;;;;;;;;5045413;28;20061;-64
2021/10/10 10:21:02;;;;;;;55.17;31.97;;;;;;;;;;5039587;28;20394;-64
2021/10/10 10:23:31;;;;;;;62.13;33.25;;;;;;;;;;5047072;28;20067;-64
2021/10/10 10:25:57;;;;;;;52.08;33.90;;;;;;;;;;5053544;28;20068;-64
2021/10/10 10:28:24;;;;;;;53.85;33.67;;;;;;;;;;5056083;28;20055;-64
2021/10/10 10:30:50;;;;;;;55.72;32.05;;;;;;;;;;5053463;28;20037;-64
2021/10/10 10:33:18;;;;;;;53.53;31.38;;;;;;;;;;5060090;28;20079;-64
2021/10/10 10:35:45;;;;;;;59.15;32.70;;;;;;;;;;5039389;28;20059;-64
2021/10/10 10:38:14;;;;;;;51.80;31.10;;;;;;;;;;5059138;28;20430;-64
2021/10/10 10:40:40;;;;;;;55.05;32.85;;;;;;;;;;5029857;28;20053;-64
2021/10/10 10:43:11;;;;;;;54.13;32.13;;;;;;;;;;5060284;28;20048;-65
2021/10/10 10:45:38;;;;;;;47.33;28.88;;;;;;;;;;5036023;28;20057;-64
2021/10/10 10:48:04;;;;;;;48.88;29.00;;;;;;;;;;5046565;28;20086;-64
2021/10/10 10:50:34;;;;;;;48.65;30.08;;;;;;;;;;5048779;28;20059;-64
2021/10/10 10:53:01;;;;;;;48.47;30.83;;;;;;;;;;5048288;28;20230;-64
2021/10/10 10:55:29;;;;;;;52.75;30.98;;;;;;;;;;5060836;28;20052;-64
2021/10/10 10:57:57;;;;;;;48.13;30.05;;;;;;;;;;5046706;28;20048;-64
2021/10/10 11:00:30;;;;;;;48.05;28.90;;;;;;;;;;5040445;28;20059;-65
2021/10/10 11:03:00;;;;;;;47.28;29.10;;;;;;;;;;5044905;28;20094;-65
2021/10/10 11:05:43;;;;;;;47.35;30.30;;;;;;;;;;5045593;28;20383;-65
2021/10/10 11:08:29;;;;;;;46.67;27.52;;;;;;;;;;5058627;28;20131;-64
2021/10/10 11:11:05;;;;;;;48.63;28.60;;;;;;;;;;5034340;28;21665;-65
2021/10/10 11:13:34;;;;;;;48.08;30.35;;;;;;;;;;5042822;28;20101;-65
2021/10/10 11:16:07;;;;;;;47.33;28.33;;;;;;;;;;5037047;28;20510;-65
2021/10/10 11:18:36;;;;;;;47.30;29.10;;;;;;;;;;5051724;28;20053;-64
2021/10/10 11:21:04;;;;;;;47.58;28.92;;;;;;;;;;5035315;28;20520;-65
2021/10/10 11:23:31;;;;;;;50.30;29.67;;;;;;;;;;5059138;28;20392;-64
2021/10/10 11:25:59;;;;;;;43.08;27.20;;;;;;;;;;5049556;28;20051;-64
2021/10/10 11:28:26;;;;;;;;;;;;;;;;;;5049731;28;20072;-64
2021/10/10 11:31:04;;;;;;;47.38;29.20;;;;;;;;;;5046150;28;20341;-64
2021/10/10 11:33:35;;;;;;;46.53;28.92;;;;;;;;;;5052009;28;20615;-64
2021/10/10 11:36:01;;;;;;;51.38;29.20;;;;;;;;;;5023902;28;20934;-64
2021/10/10 11:38:28;;;;;;;47.72;29.05;;;;;;;;;;5041951;28;20057;-64
2021/10/10 11:40:58;;;;;;;43.45;28.70;;;;;;;;;;5042979;28;20489;-64
2021/10/10 11:43:24;;;;;;;47.03;29.80;;;;;;;;;;5055143;28;20045;-64
2021/10/10 11:45:57;;;;;;;44.85;28.77;;;;;;;;;;5036959;28;20049;-64
2021/10/10 11:48:31;;;;;;;43.40;27.45;;;;;;;;;;5052823;28;20102;-65
2021/10/10 11:50:57;;;;;;;47.92;30.40;;;;;;;;;;5043125;28;20045;-64
2021/10/10 11:53:33;;;;;;;51.15;28.90;;;;;;;;;;5054736;28;20040;-64
2021/10/10 11:56:02;;;;;;;43.58;27.50;;;;;;;;;;5035865;28;20068;-64
2021/10/10 11:58:31;;;;;;;46.25;27.92;;;;;;;;;;5050663;28;20442;-65
2021/10/10 12:01:08;;;;;;;43.90;27.73;;;;;;;;;;5047795;28;20056;-64
2021/10/10 12:03:34;;;;;;;43.55;28.17;;;;;;;;;;5049758;28;20079;-64
2021/10/10 12:06:01;;;;;;;51.65;29.50;;;;;;;;;;5046594;28;20053;-64
2021/10/10 12:08:28;;;;;;;47.97;28.63;;;;;;;;;;5017616;28;20052;-64
2021/10/10 12:10:54;;;;;;;48.42;29.27;;;;;;;;;;5047194;28;20045;-64
2021/10/10 12:13:22;;;;;;;43.75;28.08;;;;;;;;;;5046972;28;20405;-64
2021/10/10 12:16:03;;;;;;;46.70;28.63;;;;;;;;;;5046528;28;20048;-64
2021/10/10 12:18:30;;;;;;;57.72;28.20;;;;;;;;;;5048386;28;20445;-65
2021/10/10 12:21:15;;;;;;;44.47;28.50;;;;;;;;;;5035813;28;20041;-65
2021/10/10 12:23:41;;;;;;;47.15;27.38;;;;;;;;;;5047152;28;20049;-64
2021/10/10 12:26:09;;;;;;;43.53;27.00;;;;;;;;;;5044325;28;20044;-64
2021/10/10 12:28:36;;;;;;;45.88;27.55;;;;;;;;;;5057839;28;20063;-65
2021/10/10 12:31:02;;;;;;;46.80;28.42;;;;;;;;;;5042279;28;20053;-65
2021/10/10 12:33:30;;;;;;;48.00;27.42;;;;;;;;;;5052140;28;20045;-64
2021/10/10 12:36:06;;;;;;;45.25;27.15;;;;;;;;;;5034870;28;20492;-64
2021/10/10 12:38:36;;;;;;;43.22;25.65;;;;;;;;;;5060324;28;20052;-65
2021/10/10 12:41:22;;;;;;;47.13;28.02;;;;;;;;;;5054490;28;20068;-65
2021/10/10 12:43:49;;;;;;;45.20;27.27;;;;;;;;;;5055552;28;20041;-64
2021/10/10 12:46:16;;;;;;;45.33;25.63;;;;;;;;;;5061351;28;20129;-65
2021/10/10 12:48:54;;;;;;;41.83;25.52;;;;;;;;;;5026512;28;20075;-64
2021/10/10 12:51:20;;;;;;;47.70;29.00;;;;;;;;;;5057607;28;20055;-65
2021/10/10 12:53:47;;;;;;;48.30;29.77;;;;;;;;;;5044970;28;20064;-65
2021/10/10 12:56:22;;;;;;;50.63;29.55;;;;;;;;;;5058760;28;20311;-65
2021/10/10 12:58:53;;;;;;;53.30;32.20;;;;;;;;;;5046961;28;20045;-65
2021/10/10 13:01:20;;;;;;;48.25;30.15;;;;;;;;;;5051494;28;20056;-65
2021/10/10 13:04:06;;;;;;;45.50;27.13;;;;;;;;;;5038805;28;20536;-65
2021/10/10 13:06:32;;;;;;;44.67;24.35;;;;;;;;;;5051087;28;21498;-65
2021/10/10 13:08:59;;;;;;;45.80;24.80;;;;;;;;;;5044876;28;20088;-65
2021/10/10 13:11:26;;;;;;;40.63;23.48;;;;;;;;;;5050564;28;20433;-64
2021/10/10 13:13:53;;;;;;;42.38;25.42;;;;;;;;;;5026643;28;20143;-64
2021/10/10 13:16:20;;;;;;;45.85;26.60;;;;;;;;;;5050233;28;20048;-65
2021/10/10 13:18:46;;;;;;;45.15;26.67;;;;;;;;;;5034263;28;20058;-65
2021/10/10 13:21:13;;;;;;;46.95;28.45;;;;;;;;;;5055152;28;20362;-65
2021/10/10 13:23:40;;;;;;;50.60;27.63;;;;;;;;;;5048426;28;20088;-65
2021/10/10 13:26:06;;;;;;;45.78;28.48;;;;;;;;;;5042569;28;20534;-65
2021/10/10 13:28:33;;;;;;;50.80;30.88;;;;;;;;;;5045363;28;20060;-65
2021/10/10 13:31:04;;;;;;;55.55;32.97;;;;;;;;;;5049125;28;20601;-65
2021/10/10 13:33:31;;;;;;;57.22;32.70;;;;;;;;;;5049019;28;20119;-65
2021/10/10 13:35:59;;;;;;;56.22;33.72;;;;;;;;;;5048124;28;20048;-65
2021/10/10 13:38:25;;;;;;;57.73;35.27;;;;;;;;;;5056054;28;20421;-65
2021/10/10 13:40:52;;;;;;;50.47;33.65;;;;;;;;;;5045003;28;20044;-65
2021/10/10 13:43:18;;;;;;;59.10;34.47;;;;;;;;;;5047320;28;20045;-65
2021/10/10 13:45:46;;;;;;;63.30;35.28;;;;;;;;;;5038963;28;20251;-65
2021/10/10 13:48:13;;;;;;;59.50;35.15;;;;;;;;;;5052602;28;20560;-65
2021/10/10 13:50:39;;;;;;;55.53;35.22;;;;;;;;;;5056534;28;20052;-65
2021/10/10 13:53:05;;;;;;;65.43;35.30;;;;;;;;;;5040103;28;20075;-65
2021/10/10 13:55:33;;;;;;;56.92;34.83;;;;;;;;;;5054439;28;20063;-65
2021/10/10 13:57:59;;;;;;;62.75;36.50;;;;;;;;;;5042856;28;20067;-65
2021/10/10 14:00:25;;;;;;;53.50;35.17;;;;;;;;;;5030996;28;20516;-65
2021/10/10 14:02:52;;;;;;;59.83;35.97;;;;;;;;;;5055332;28;20044;-65
2021/10/10 14:05:18;;;;;;;55.45;33.38;;;;;;;;;;5036932;28;20701;-64
2021/10/10 14:07:44;;;;;;;56.78;35.65;;;;;;;;;;5052385;28;20512;-65
2021/10/10 14:10:11;;;;;;;54.28;33.13;;;;;;;;;;5042937;28;20567;-65
2021/10/10 14:12:37;;;;;;;56.13;32.90;;;;;;;;;;5047643;28;20478;-66
2021/10/10 14:15:04;;;;;;;50.55;31.50;;;;;;;;;;5035543;28;20053;-65
2021/10/10 14:17:30;;;;;;;55.78;35.35;;;;;;;;;;5052700;28;20282;-65
2021/10/10 14:19:57;;;;;;;54.88;33.63;;;;;;;;;;5045478;28;20103;-65
2021/10/10 14:22:26;;;;;;;53.83;33.17;;;;;;;;;;5029574;28;20049;-65
2021/10/10 14:24:52;;;;;;;56.35;33.47;;;;;;;;;;5053764;28;20048;-64
2021/10/10 14:27:19;;;;;;;60.35;35.95;;;;;;;;;;5037446;28;20045;-64
2021/10/10 14:29:45;;;;;;;58.65;35.28;;;;;;;;;;5053996;28;20520;-65